Time;durP1;ratioP1;P1;durP2;ratioP2;P2;SDS_P1;SDS_P2;PMS_P1;PMS_P2;Temp;Humidity;BMP_temperature;BMP_pressure;BME280_temperature;BME280_humidity;BME280_pressure;Samples;Min_cycle;Max_cycle;Signal;HPM_P1;HPM_P2
2021/07/26 00:00:11;;;;;;;6.75;5.95;;;;;;;23.36;70.06;101415.50;5004239;28;102545;-51
2021/07/26 00:02:38;;;;;;;6.60;5.93;;;;;;;23.36;70.05;101407.19;5005538;28;102390;-51
2021/07/26 00:05:06;;;;;;;7.55;6.78;;;;;;;23.36;69.82;101419.09;5008409;28;102952;-51
2021/07/26 00:07:34;;;;;;;6.63;5.97;;;;;;;23.37;69.99;101419.91;5010899;28;103990;-51
2021/07/26 00:10:03;;;;;;;6.47;5.87;;;;;;;23.37;69.66;101419.91;5007771;27;102324;-51
2021/07/26 00:12:32;;;;;;;10.30;5.90;;;;;;;23.36;69.90;101418.28;5000562;28;102391;-51
2021/07/26 00:14:59;;;;;;;;;;;;;;;23.35;70.03;101423.03;5001162;28;102403;-51
2021/07/26 00:17:26;;;;;;;6.97;6.07;;;;;;;23.34;69.98;101410.31;5008153;28;103965;-50
2021/07/26 00:19:56;;;;;;;6.00;5.50;;;;;;;23.34;69.94;101415.88;5002151;28;102501;-51
2021/07/26 00:22:25;;;;;;;6.97;6.10;;;;;;;23.34;70.18;101412.28;5004586;28;102551;-51
2021/07/26 00:24:54;;;;;;;6.15;5.55;;;;;;;23.34;70.14;101417.84;5009336;28;102566;-51
2021/07/26 00:27:21;;;;;;;5.68;5.13;;;;;;;23.35;70.25;101411.94;5007880;28;103965;-51
2021/07/26 00:29:47;;;;;;;6.40;5.78;;;;;;;23.36;70.36;101418.28;5009455;28;102092;-50
2021/07/26 00:32:16;;;;;;;6.32;5.72;;;;;;;23.35;70.18;101413.91;4995858;28;102258;-51
2021/07/26 00:35:05;;;;;;;6.03;5.43;;;;;;;23.36;70.36;101409.97;4999319;28;102770;-51
2021/07/26 00:37:32;;;;;;;6.55;5.90;;;;;;;23.35;70.22;101414.72;5008077;28;104786;-51
2021/07/26 00:40:07;;;;;;;10.27;5.95;;;;;;;23.35;70.28;101414.72;5005949;28;102618;-51
2021/07/26 00:42:35;;;;;;;6.90;6.30;;;;;;;23.36;70.14;101412.75;5009830;28;102561;-51
2021/07/26 00:45:02;;;;;;;7.18;5.82;;;;;;;23.37;70.30;101419.91;5011020;28;102276;-50
2021/07/26 00:47:29;;;;;;;7.68;6.07;;;;;;;23.35;70.44;101416.69;5004859;28;105091;-51
2021/07/26 00:49:56;;;;;;;6.25;5.60;;;;;;;23.35;70.18;101405.56;5010935;28;103503;-50
2021/07/26 00:52:23;;;;;;;6.90;6.18;;;;;;;23.35;70.23;101411.13;5001469;28;102341;-50
2021/07/26 00:54:50;;;;;;;6.30;5.70;;;;;;;23.36;70.23;101412.75;4999168;28;102579;-50
2021/07/26 00:57:20;;;;;;;7.50;6.35;;;;;;;23.35;70.05;101411.13;5010728;28;103632;-51
2021/07/26 00:59:46;;;;;;;7.00;6.10;;;;;;;23.35;70.13;101405.56;5006466;28;102185;-51
2021/07/26 01:02:13;;;;;;;7.53;6.80;;;;;;;23.35;70.13;101406.38;5008350;28;102280;-51
2021/07/26 01:04:40;;;;;;;7.15;6.22;;;;;;;23.35;70.37;101405.56;5009630;28;102568;-51
2021/07/26 01:07:07;;;;;;;6.47;5.85;;;;;;;23.35;70.37;101403.59;5014445;28;104098;-51
2021/07/26 01:09:41;;;;;;;6.60;5.95;;;;;;;23.35;70.41;101402.78;5010699;28;102122;-51
2021/07/26 01:12:26;;;;;;;6.65;6.05;;;;;;;23.35;70.19;101397.22;5009294;28;102073;-51
2021/07/26 01:14:53;;;;;;;6.80;6.10;;;;;;;23.35;70.14;101400.00;5009584;28;102298;-51
2021/07/26 01:17:40;;;;;;;7.88;6.40;;;;;;;23.35;70.27;101400.00;5001978;28;105425;-51
2021/07/26 01:20:09;;;;;;;6.28;5.78;;;;;;;23.34;70.34;101399.22;5008188;28;102089;-51
2021/07/26 01:22:36;;;;;;;8.60;5.95;;;;;;;23.34;70.24;101404.75;5002418;28;102094;-51
2021/07/26 01:25:03;;;;;;;6.57;5.88;;;;;;;23.34;70.34;101398.41;5005815;28;102181;-51
2021/07/26 01:27:30;;;;;;;6.75;5.45;;;;;;;23.34;70.62;101398.41;5014703;28;103719;-51
2021/07/26 01:29:56;;;;;;;6.07;5.47;;;;;;;23.34;70.33;101403.94;5009362;28;102625;-51
2021/07/26 01:32:23;;;;;;;7.70;5.70;;;;;;;23.34;70.45;101392.84;5008183;28;102144;-50
2021/07/26 01:34:51;;;;;;;7.60;6.00;;;;;;;23.34;70.46;101395.63;5008289;28;102804;-51
2021/07/26 01:37:20;;;;;;;6.20;5.63;;;;;;;23.33;70.44;101397.56;5016653;27;104363;-50
2021/07/26 01:39:46;;;;;;;6.47;5.93;;;;;;;23.34;70.36;101403.94;5008276;28;102163;-51
2021/07/26 01:42:12;;;;;;;6.10;5.55;;;;;;;23.33;70.58;101405.09;5008870;28;102288;-51
2021/07/26 01:44:39;;;;;;;7.45;5.78;;;;;;;23.33;70.71;101402.31;5010426;28;102814;-50
2021/07/26 01:47:10;;;;;;;6.10;5.50;;;;;;;23.33;70.41;101402.31;5005338;28;103898;-51
2021/07/26 01:49:55;;;;;;;6.18;5.68;;;;;;;23.33;70.29;101397.56;5007362;28;102729;-50
2021/07/26 01:52:24;;;;;;;7.13;5.70;;;;;;;23.33;70.42;101403.13;4999659;28;102813;-51
2021/07/26 01:54:52;;;;;;;6.72;5.93;;;;;;;23.33;70.50;101396.75;5002760;28;102554;-50
2021/07/26 01:57:18;;;;;;;7.13;6.30;;;;;;;23.32;70.40;101401.50;5001757;28;103835;-50
2021/07/26 01:59:46;;;;;;;6.55;5.95;;;;;;;23.33;70.56;101405.09;5004145;28;102467;-51
2021/07/26 02:02:13;;;;;;;7.37;6.67;;;;;;;23.32;70.46;101395.94;5011413;28;102317;-51
2021/07/26 02:04:40;;;;;;;8.43;6.82;;;;;;;23.33;70.80;101407.88;5007083;28;103008;-50
2021/07/26 02:07:06;;;;;;;7.70;7.00;;;;;;;23.32;70.65;101407.06;5001016;28;104367;-50
2021/07/26 02:09:35;;;;;;;8.52;7.72;;;;;;;23.33;70.78;101405.09;5006804;28;102334;-51
2021/07/26 02:12:02;;;;;;;8.52;7.72;;;;;;;23.32;70.64;101401.50;4999359;28;102174;-51
2021/07/26 02:14:29;;;;;;;8.65;7.72;;;;;;;23.33;70.74;101407.88;5005946;28;102549;-51
2021/07/26 02:16:55;;;;;;;8.43;7.63;;;;;;;23.33;70.69;101407.88;4999240;28;103422;-51
2021/07/26 02:19:22;;;;;;;8.63;7.68;;;;;;;23.33;70.62;101411.44;5005681;28;102488;-51
2021/07/26 02:21:51;;;;;;;8.73;6.95;;;;;;;23.34;70.57;101415.06;5007137;28;102438;-51
2021/07/26 02:24:18;;;;;;;8.32;7.53;;;;;;;23.32;70.36;101417.34;5007951;28;103470;-51
2021/07/26 02:26:46;;;;;;;8.83;7.50;;;;;;;23.32;70.56;101407.06;5005541;28;103934;-50
2021/07/26 02:29:13;;;;;;;8.00;7.27;;;;;;;23.32;70.71;101411.81;5005340;28;102795;-50
2021/07/26 02:31:39;;;;;;;7.50;6.80;;;;;;;23.32;70.59;101406.25;5012458;28;102188;-51
2021/07/26 02:34:06;;;;;;;7.57;6.78;;;;;;;23.32;70.47;101414.56;5004310;28;102786;-50
2021/07/26 02:36:33;;;;;;;6.95;6.25;;;;;;;23.32;70.64;101406.25;4994306;28;104001;-51
2021/07/26 02:39:00;;;;;;;6.75;6.15;;;;;;;23.32;70.45;101411.81;4999289;28;102632;-51
2021/07/26 02:41:26;;;;;;;7.60;6.90;;;;;;;23.32;70.55;101411.81;5006893;28;102327;-51
2021/07/26 02:43:55;;;;;;;6.90;6.30;;;;;;;23.31;70.46;101405.44;5010297;28;102937;-51
2021/07/26 02:46:22;;;;;;;7.25;6.63;;;;;;;23.31;70.63;101410.19;5007208;28;104127;-51
2021/07/26 02:48:48;;;;;;;7.43;6.38;;;;;;;23.31;70.60;101411.00;5006968;28;102632;-51
2021/07/26 02:51:15;;;;;;;7.18;6.57;;;;;;;23.31;70.62;101410.19;5021045;28;102580;-51
2021/07/26 02:53:42;;;;;;;7.50;6.53;;;;;;;23.30;70.63;101411.31;5022454;28;102900;-51
2021/07/26 02:56:09;;;;;;;7.72;6.90;;;;;;;23.32;70.76;101406.25;5020289;28;104080;-50
2021/07/26 02:58:37;;;;;;;8.18;6.60;;;;;;;23.32;70.57;101409.81;5004149;28;102741;-51
2021/07/26 03:01:09;;;;;;;7.18;6.47;;;;;;;23.31;70.46;101405.44;5007290;28;102494;-51
2021/07/26 03:03:36;;;;;;;7.50;6.70;;;;;;;23.30;70.69;101409.38;5017292;28;101974;-51
2021/07/26 03:06:02;;;;;;;7.97;7.18;;;;;;;23.31;70.88;101411.00;5009821;28;103890;-51
2021/07/26 03:08:30;;;;;;;8.30;7.50;;;;;;;23.31;70.71;101402.66;5006987;28;102202;-51
2021/07/26 03:10:59;;;;;;;8.38;7.00;;;;;;;23.32;70.41;101404.28;5006724;28;102312;-50
2021/07/26 03:13:25;;;;;;;8.20;6.78;;;;;;;23.31;70.78;101399.88;5006553;28;103036;-50
2021/07/26 03:15:52;;;;;;;7.70;6.90;;;;;;;23.31;70.77;101404.63;5000045;28;104636;-51
2021/07/26 03:18:20;;;;;;;7.72;6.93;;;;;;;23.31;70.66;101399.06;5008050;28;102573;-51
2021/07/26 03:20:47;;;;;;;7.47;6.67;;;;;;;23.31;70.43;101399.06;5002404;28;102536;-51
2021/07/26 03:23:13;;;;;;;6.63;6.03;;;;;;;23.29;70.60;101407.72;5002816;28;102298;-51
2021/07/26 03:25:42;;;;;;;7.10;6.50;;;;;;;23.30;70.59;101402.97;5012068;28;103991;-52
2021/07/26 03:28:10;;;;;;;7.20;6.60;;;;;;;23.31;70.98;101404.63;5008599;27;102279;-51
2021/07/26 03:30:36;;;;;;;7.25;6.55;;;;;;;23.30;70.83;101402.97;5006753;28;102553;-51
2021/07/26 03:33:03;;;;;;;6.57;6.03;;;;;;;23.30;70.81;101409.38;4994957;28;103479;-51
2021/07/26 03:35:32;;;;;;;6.70;5.65;;;;;;;23.31;70.83;101410.19;4996786;28;103710;-51
2021/07/26 03:37:58;;;;;;;6.93;6.32;;;;;;;23.31;71.02;101415.75;5008552;28;102525;-50
2021/07/26 03:40:25;;;;;;;6.72;6.15;;;;;;;23.30;71.00;101414.09;5002753;28;102880;-51
2021/07/26 03:42:51;;;;;;;7.53;6.10;;;;;;;23.30;71.11;101402.97;5007137;28;102683;-51
2021/07/26 03:45:20;;;;;;;7.13;6.40;;;;;;;23.31;71.00;101410.19;5004530;28;104845;-51
2021/07/26 03:47:48;;;;;;;7.20;6.50;;;;;;;23.31;71.10;101418.53;5007369;28;102035;-51
2021/07/26 03:50:16;;;;;;;7.40;6.70;;;;;;;23.31;71.00;101410.19;4995248;28;102503;-51
2021/07/26 03:52:46;;;;;;;7.47;6.85;;;;;;;23.30;71.16;101411.31;4999173;28;102646;-51
2021/07/26 03:55:14;;;;;;;6.78;6.15;;;;;;;23.31;71.19;101407.41;5000899;28;103755;-51
2021/07/26 03:57:40;;;;;;;7.50;6.78;;;;;;;23.31;71.10;101415.75;5006407;28;102532;-51
2021/07/26 04:00:08;;;;;;;7.18;6.53;;;;;;;23.30;71.07;101412.16;5007108;28;102656;-51
2021/07/26 04:02:36;;;;;;;8.40;6.47;;;;;;;23.30;71.17;101414.94;5013907;28;102936;-51
2021/07/26 04:05:05;;;;;;;7.37;6.67;;;;;;;23.30;71.20;101414.94;5010827;28;103917;-51
2021/07/26 04:07:35;;;;;;;7.88;7.18;;;;;;;23.31;71.11;101415.75;5007183;28;102303;-50
2021/07/26 04:10:07;;;;;;;6.97;6.43;;;;;;;23.31;71.12;101415.75;5012097;27;102756;-51
2021/07/26 04:12:35;;;;;;;7.38;6.63;;;;;;;23.32;70.94;101411.81;5010155;28;102281;-51
2021/07/26 04:15:08;;;;;;;7.68;6.95;;;;;;;23.32;71.11;101411.81;5009382;28;104362;-51
2021/07/26 04:17:35;;;;;;;7.75;6.95;;;;;;;23.32;71.07;101417.34;5002722;28;102303;-51
2021/07/26 04:20:03;;;;;;;7.78;7.07;;;;;;;23.32;71.24;101422.91;5011185;28;102405;-51
2021/07/26 04:22:29;;;;;;;7.78;6.80;;;;;;;23.32;71.30;101422.91;5002157;28;102207;-53
2021/07/26 04:24:56;;;;;;;7.57;6.88;;;;;;;23.33;71.16;101416.19;5010652;28;103895;-50
2021/07/26 04:27:28;;;;;;;7.40;6.70;;;;;;;23.32;71.14;101423.72;5008403;28;102565;-51
2021/07/26 04:29:55;;;;;;;7.20;6.60;;;;;;;23.34;71.21;101420.63;5010254;28;102204;-51
2021/07/26 04:32:22;;;;;;;6.85;6.25;;;;;;;23.34;71.30;101426.16;5009498;28;102839;-51
2021/07/26 04:34:48;;;;;;;7.15;6.45;;;;;;;23.34;71.22;101432.53;5009387;28;103997;-51
2021/07/26 04:37:15;;;;;;;6.65;5.97;;;;;;;23.34;71.49;101424.19;5008096;28;102162;-51
2021/07/26 04:39:42;;;;;;;7.07;6.38;;;;;;;23.34;71.14;101423.41;5010888;28;102497;-51
2021/07/26 04:42:08;;;;;;;6.93;6.32;;;;;;;23.34;71.01;101420.63;4999188;28;102701;-51
2021/07/26 04:44:39;;;;;;;7.32;6.57;;;;;;;23.34;71.07;101426.97;5007307;28;104106;-51
2021/07/26 04:47:07;;;;;;;7.25;6.65;;;;;;;23.34;71.19;101426.97;5003759;28;102227;-51
2021/07/26 04:49:34;;;;;;;9.00;7.68;;;;;;;23.35;71.29;101425.00;5008290;28;102414;-51
2021/07/26 04:52:01;;;;;;;7.43;6.65;;;;;;;23.35;71.32;101416.69;5010127;28;102594;-51
2021/07/26 04:54:27;;;;;;;8.93;6.72;;;;;;;23.35;71.29;101428.59;5007721;28;104031;-51
2021/07/26 04:56:54;;;;;;;6.90;6.25;;;;;;;23.35;71.12;101422.22;5019252;28;102096;-50
2021/07/26 04:59:21;;;;;;;6.82;6.13;;;;;;;23.36;71.38;101418.28;5006864;27;102294;-51
2021/07/26 05:01:49;;;;;;;7.20;6.57;;;;;;;23.37;71.30;101428.25;5003626;28;103643;-51
2021/07/26 05:04:15;;;;;;;7.27;6.63;;;;;;;23.37;71.38;101425.47;5006466;28;104000;-51
2021/07/26 05:06:42;;;;;;;7.47;6.78;;;;;;;23.37;71.40;101419.91;4998778;28;102436;-51
2021/07/26 05:09:09;;;;;;;7.55;6.95;;;;;;;23.37;71.11;101426.31;5007567;28;102519;-51
2021/07/26 05:11:36;;;;;;;6.90;6.28;;;;;;;23.37;71.27;101426.31;5008718;28;102801;-51
2021/07/26 05:14:03;;;;;;;8.30;7.30;;;;;;;23.37;71.30;101431.03;5007269;28;105158;-51
2021/07/26 05:16:30;;;;;;;7.68;6.88;;;;;;;23.38;71.16;101427.91;5009125;28;102623;-51
2021/07/26 05:18:59;;;;;;;7.20;6.47;;;;;;;23.39;71.19;101429.53;5008763;28;102540;-51
2021/07/26 05:21:25;;;;;;;7.78;7.07;;;;;;;23.39;71.14;101429.53;5010501;28;102633;-56
2021/07/26 05:23:52;;;;;;;6.55;6.00;;;;;;;23.40;71.09;101435.91;5007498;28;103876;-51
2021/07/26 05:26:19;;;;;;;7.88;6.93;;;;;;;23.40;71.13;101431.16;5005398;28;102150;-51
2021/07/26 05:28:46;;;;;;;7.35;6.70;;;;;;;23.41;71.30;101435.56;5005272;28;102412;-50
2021/07/26 05:31:12;;;;;;;7.43;6.72;;;;;;;23.42;71.22;101433.59;5000116;28;102379;-51
2021/07/26 05:33:41;;;;;;;7.40;6.70;;;;;;;23.43;71.09;101436.03;5005321;28;103963;-51
2021/07/26 05:36:09;;;;;;;7.00;6.40;;;;;;;23.43;71.17;101432.44;5000727;28;102510;-51
2021/07/26 05:38:35;;;;;;;8.25;7.45;;;;;;;23.44;71.17;101425.72;5002092;28;102562;-51
2021/07/26 05:41:02;;;;;;;7.75;6.88;;;;;;;23.45;70.87;101424.59;5002720;28;103166;-51
2021/07/26 05:43:29;;;;;;;6.97;6.30;;;;;;;23.46;70.92;101417.88;5006909;28;104028;-51
2021/07/26 05:45:56;;;;;;;7.15;6.55;;;;;;;23.47;70.71;101423.06;5006707;28;103616;-51
2021/07/26 05:48:22;;;;;;;7.40;6.70;;;;;;;23.49;70.85;101419.97;5001331;28;102698;-51
2021/07/26 05:50:50;;;;;;;7.63;6.93;;;;;;;23.49;70.89;101414.41;5008764;28;102777;-51
2021/07/26 05:53:18;;;;;;;6.90;6.30;;;;;;;23.49;70.82;101420.78;5001034;28;103898;-51
2021/07/26 05:55:45;;;;;;;7.33;6.73;;;;;;;23.50;70.81;101418.81;5005894;28;102801;-51
2021/07/26 05:58:11;;;;;;;6.90;6.28;;;;;;;23.51;70.89;101414.88;5006105;28;102015;-51
2021/07/26 06:00:42;;;;;;;8.25;7.13;;;;;;;23.51;70.84;101409.31;4995655;28;102456;-51
2021/07/26 06:03:09;;;;;;;7.72;7.03;;;;;;;23.53;70.87;101418.13;5018907;28;103911;-51
2021/07/26 06:05:36;;;;;;;7.85;7.15;;;;;;;23.55;70.64;101415.00;5009703;28;101984;-51
2021/07/26 06:08:04;;;;;;;7.67;6.87;;;;;;;23.57;70.69;101419.06;5004161;28;102656;-51
2021/07/26 06:10:33;;;;;;;6.93;6.32;;;;;;;23.57;70.75;101424.63;5004682;28;102792;-51
2021/07/26 06:12:59;;;;;;;7.60;6.82;;;;;;;23.59;70.64;101424.28;5004298;28;103731;-51
2021/07/26 06:15:26;;;;;;;7.40;6.70;;;;;;;23.59;70.62;101421.50;5007676;28;102162;-51
2021/07/26 06:17:52;;;;;;;7.53;6.82;;;;;;;23.61;70.49;101431.13;5001965;28;102432;-51
2021/07/26 06:20:19;;;;;;;7.85;6.78;;;;;;;23.61;70.70;101424.75;5008163;28;102256;-50
2021/07/26 06:22:46;;;;;;;8.10;7.30;;;;;;;23.62;70.54;101421.66;5001056;28;103874;-51
2021/07/26 06:25:13;;;;;;;7.60;6.82;;;;;;;23.63;70.29;101428.00;5007715;28;104683;-51
2021/07/26 06:27:41;;;;;;;7.97;7.25;;;;;;;23.63;70.57;101426.03;5015803;28;102223;-51
2021/07/26 06:30:09;;;;;;;7.53;6.70;;;;;;;23.64;70.34;101421.28;5007954;27;102608;-51
2021/07/26 06:32:36;;;;;;;7.85;7.10;;;;;;;23.65;70.50;101420.13;5003989;28;103897;-51
2021/07/26 06:35:05;;;;;;;8.63;7.30;;;;;;;23.65;70.55;101422.91;5002898;28;102131;-51
2021/07/26 06:37:31;;;;;;;6.90;6.30;;;;;;;23.66;70.25;101416.22;5007227;28;103200;-51
2021/07/26 06:39:58;;;;;;;7.88;7.18;;;;;;;23.66;70.44;101416.22;5011605;28;102480;-51
2021/07/26 06:42:25;;;;;;;7.38;6.68;;;;;;;23.67;70.22;101418.66;4995957;28;102821;-50
2021/07/26 06:44:56;;;;;;;8.27;7.15;;;;;;;23.69;70.36;101415.53;5002670;28;102615;-51
2021/07/26 06:47:23;;;;;;;8.02;7.25;;;;;;;23.70;70.28;101422.72;4998989;28;102377;-51
2021/07/26 06:49:49;;;;;;;8.50;7.03;;;;;;;23.70;70.26;101417.97;4999364;28;103784;-51
2021/07/26 06:52:16;;;;;;;7.82;7.05;;;;;;;23.72;70.26;101415.66;5004634;28;103300;-50
2021/07/26 06:54:42;;;;;;;7.75;7.05;;;;;;;23.72;70.34;101421.22;5005986;28;102632;-51
2021/07/26 06:57:09;;;;;;;7.57;6.88;;;;;;;23.74;69.95;101423.66;5008315;28;102530;-51
2021/07/26 06:59:35;;;;;;;8.23;7.45;;;;;;;23.76;70.00;101431.66;5004362;28;103920;-51
2021/07/26 07:02:03;;;;;;;8.00;7.20;;;;;;;23.76;69.97;101432.44;5000196;28;103872;-50
2021/07/26 07:04:30;;;;;;;8.73;7.03;;;;;;;23.77;69.89;101430.50;4997993;28;102473;-51
2021/07/26 07:06:56;;;;;;;8.02;6.70;;;;;;;23.78;69.64;101434.91;5004051;28;102532;-51
2021/07/26 07:09:26;;;;;;;7.70;6.93;;;;;;;23.79;69.61;101430.97;5003097;28;103044;-51
2021/07/26 07:11:53;;;;;;;8.35;7.63;;;;;;;23.78;69.69;101437.69;5004876;28;103745;-51
2021/07/26 07:14:20;;;;;;;7.68;6.80;;;;;;;23.81;69.57;101434.22;5008112;28;102776;-51
2021/07/26 07:16:47;;;;;;;8.27;6.85;;;;;;;23.81;69.73;101440.59;5007855;28;102204;-51
2021/07/26 07:19:16;;;;;;;8.88;7.38;;;;;;;23.82;69.70;101438.63;5018118;28;102554;-51
2021/07/26 07:21:42;;;;;;;8.25;7.15;;;;;;;23.82;69.42;101435.84;5009666;28;103771;-51
2021/07/26 07:24:09;;;;;;;7.80;7.10;;;;;;;23.83;69.70;101443.00;5001751;28;102610;-52
2021/07/26 07:26:36;;;;;;;9.48;7.57;;;;;;;23.83;69.73;101440.22;4999661;28;102830;-51
2021/07/26 07:29:03;;;;;;;8.88;7.20;;;;;;;23.84;69.89;101441.84;5008155;28;102470;-51
2021/07/26 07:31:39;;;;;;;7.77;7.07;;;;;;;23.83;69.79;101440.22;5007260;28;103985;-51
2021/07/26 07:34:07;;;;;;;7.28;6.68;;;;;;;23.84;69.74;101444.63;5008539;28;102458;-51
2021/07/26 07:36:42;;;;;;;7.63;6.93;;;;;;;23.82;69.97;101436.66;5002639;28;102211;-51
2021/07/26 07:39:09;;;;;;;7.32;6.63;;;;;;;23.84;69.66;101447.41;5008718;28;102729;-51
2021/07/26 07:41:36;;;;;;;7.55;6.85;;;;;;;23.84;69.42;101439.06;5005822;28;103894;-50
2021/07/26 07:44:03;;;;;;;7.50;6.78;;;;;;;23.84;69.86;101445.47;5005245;28;102587;-51
2021/07/26 07:46:30;;;;;;;8.30;7.10;;;;;;;23.86;69.69;101443.13;5005733;28;102092;-51
2021/07/26 07:48:57;;;;;;;7.68;6.97;;;;;;;23.88;69.77;101440.03;5016483;28;102132;-50
2021/07/26 07:51:24;;;;;;;7.80;6.53;;;;;;;23.86;69.73;101439.56;5021435;28;104339;-51
2021/07/26 07:53:53;;;;;;;8.23;6.93;;;;;;;23.87;69.61;101455.06;5012764;28;102042;-51
2021/07/26 07:56:20;;;;;;;7.47;6.82;;;;;;;23.86;69.82;101447.88;5014280;28;102580;-51
2021/07/26 07:58:52;;;;;;;7.47;6.78;;;;;;;23.88;70.00;101456.72;5020815;28;101940;-51
2021/07/26 08:01:19;;;;;;;8.38;7.05;;;;;;;23.87;69.82;101455.06;5001057;28;103901;-51
2021/07/26 08:03:45;;;;;;;7.70;6.88;;;;;;;23.88;69.69;101460.28;5003782;28;102511;-51
2021/07/26 08:06:12;;;;;;;7.97;7.05;;;;;;;23.89;69.69;101453.56;4996233;28;102322;-51
2021/07/26 08:08:38;;;;;;;7.95;7.25;;;;;;;23.91;69.79;101450.44;5008526;28;102464;-51
2021/07/26 08:11:08;;;;;;;7.88;7.07;;;;;;;23.90;69.47;101454.38;5000478;28;102670;-53
2021/07/26 08:13:39;;;;;;;8.25;7.40;;;;;;;23.90;69.93;101454.38;5004871;28;102177;-51
2021/07/26 08:16:06;;;;;;;7.75;6.95;;;;;;;23.91;69.68;101456.00;5006998;28;102775;-51
2021/07/26 08:18:33;;;;;;;8.13;7.32;;;;;;;23.92;69.52;101457.66;5006446;28;104120;-51
2021/07/26 08:21:00;;;;;;;8.18;7.38;;;;;;;23.91;69.63;101450.44;5003159;28;103568;-53
2021/07/26 08:23:26;;;;;;;9.10;7.13;;;;;;;23.91;69.46;101456.00;5014372;28;102136;-51
2021/07/26 08:25:53;;;;;;;7.68;7.05;;;;;;;23.92;69.73;101452.09;4995144;28;102246;-51
2021/07/26 08:28:21;;;;;;;7.65;6.90;;;;;;;23.91;69.75;101445.72;5002932;28;102405;-51
2021/07/26 08:30:47;;;;;;;8.30;7.23;;;;;;;23.92;69.66;101444.56;5002470;28;104026;-51
2021/07/26 08:33:14;;;;;;;8.15;7.35;;;;;;;23.93;69.89;101448.13;5003683;28;102799;-51
2021/07/26 08:35:40;;;;;;;8.23;7.50;;;;;;;23.92;69.63;101440.97;5005106;28;102604;-51
2021/07/26 08:38:07;;;;;;;7.82;7.13;;;;;;;23.92;69.52;101438.19;5000533;28;102183;-51
2021/07/26 08:40:35;;;;;;;9.60;7.68;;;;;;;23.92;69.54;101436.22;5003036;28;103887;-51
2021/07/26 08:43:05;;;;;;;8.20;7.40;;;;;;;23.91;69.78;101433.75;5006240;28;102329;-51
2021/07/26 08:45:33;;;;;;;8.57;7.68;;;;;;;23.92;69.46;101435.41;5003636;28;103744;-51
2021/07/26 08:48:03;;;;;;;8.02;7.28;;;;;;;23.91;69.56;101434.59;5005035;28;102968;-51
2021/07/26 08:50:32;;;;;;;8.10;7.30;;;;;;;23.92;69.67;101435.41;5003061;28;102969;-52
2021/07/26 08:53:01;;;;;;;7.90;7.20;;;;;;;23.94;69.57;101435.84;4998395;28;102542;-50
2021/07/26 08:55:29;;;;;;;;;;;;;;;23.94;69.67;101433.06;5010273;28;102096;-51
2021/07/26 08:57:56;;;;;;;9.03;7.87;;;;;;;23.95;69.65;101435.53;5005243;28;102830;-51
2021/07/26 09:00:24;;;;;;;7.68;6.88;;;;;;;23.95;69.56;101429.97;5005500;27;103761;-51
2021/07/26 09:02:52;;;;;;;7.65;6.95;;;;;;;23.96;69.43;101436.34;5007886;28;103673;-51
2021/07/26 09:05:19;;;;;;;8.18;7.38;;;;;;;23.96;69.64;101437.13;5003148;27;102779;-51
2021/07/26 09:07:47;;;;;;;8.50;7.70;;;;;;;23.94;69.43;101436.66;4997973;28;102954;-50
2021/07/26 09:10:17;;;;;;;8.70;7.80;;;;;;;23.95;69.23;101434.72;4998070;28;104164;-51
2021/07/26 09:12:46;;;;;;;8.07;7.38;;;;;;;23.95;69.57;101426.38;5005181;28;102448;-51
2021/07/26 09:15:30;;;;;;;8.10;7.40;;;;;;;23.96;69.32;101430.78;5001230;28;103681;-51
2021/07/26 09:18:00;;;;;;;8.10;7.10;;;;;;;23.97;69.33;101426.81;5004195;28;102599;-51
2021/07/26 09:20:29;;;;;;;8.07;7.28;;;;;;;23.96;69.42;101425.22;5009497;28;103838;-50
2021/07/26 09:22:58;;;;;;;8.90;8.10;;;;;;;23.95;69.46;101418.03;5008453;28;102483;-51
2021/07/26 09:25:25;;;;;;;;;;;;;;;23.94;69.46;101427.50;5000414;28;102653;-51
2021/07/26 09:28:07;;;;;;;8.65;7.85;;;;;;;23.96;69.66;101430.78;5009654;28;102540;-51
2021/07/26 09:30:39;;;;;;;8.10;7.40;;;;;;;23.93;69.67;101420.34;5000634;28;103569;-51
2021/07/26 09:33:20;;;;;;;8.75;7.88;;;;;;;23.93;69.83;101421.16;5005561;28;102160;-51
2021/07/26 09:36:06;;;;;;;9.23;8.25;;;;;;;23.92;69.46;101416.75;5020052;27;102260;-51
2021/07/26 09:38:34;;;;;;;9.48;7.90;;;;;;;23.91;69.41;101412.34;5012677;28;102430;-50
2021/07/26 09:41:01;;;;;;;8.90;7.80;;;;;;;23.91;69.56;101417.91;5007047;28;104611;-51
2021/07/26 09:43:29;;;;;;;8.43;7.63;;;;;;;23.93;69.62;101420.34;5009524;28;102159;-50
2021/07/26 09:45:59;;;;;;;8.00;7.30;;;;;;;23.92;69.68;101413.97;5006618;28;102458;-50
2021/07/26 09:48:28;;;;;;;9.02;8.23;;;;;;;23.93;69.72;101417.56;5005677;28;102493;-51
2021/07/26 09:50:56;;;;;;;8.52;7.63;;;;;;;23.93;69.51;101414.78;5013559;27;104105;-50
2021/07/26 09:53:25;;;;;;;7.90;7.10;;;;;;;23.93;69.42;101412.81;5013935;27;102254;-51
2021/07/26 09:55:54;;;;;;;7.38;6.80;;;;;;;23.95;69.37;101418.84;5006222;28;102280;-51
2021/07/26 09:58:37;;;;;;;7.93;7.23;;;;;;;23.94;69.19;101421.94;5006817;28;102615;-51
2021/07/26 10:01:05;;;;;;;7.78;7.07;;;;;;;23.94;68.96;101421.94;4999402;28;104158;-51
2021/07/26 10:03:32;;;;;;;7.53;6.90;;;;;;;23.95;69.14;101418.03;4998921;28;102277;-51
2021/07/26 10:06:00;;;;;;;8.10;7.30;;;;;;;23.94;69.05;101417.19;4996412;28;102673;-51
2021/07/26 10:08:28;;;;;;;8.50;7.57;;;;;;;23.93;69.09;101418.38;5007426;28;102967;-51
2021/07/26 10:10:55;;;;;;;;;;;;;;;23.94;69.20;101416.41;5005152;28;103761;-51
2021/07/26 10:13:22;;;;;;;7.97;7.28;;;;;;;23.93;69.51;101409.22;5007654;28;102347;-51
2021/07/26 10:15:56;;;;;;;9.07;8.27;;;;;;;23.90;69.29;101416.28;5007553;28;102180;-51
2021/07/26 10:18:23;;;;;;;8.10;7.40;;;;;;;23.93;69.18;101412.00;5003882;28;105345;-51
2021/07/26 10:21:00;;;;;;;8.90;8.10;;;;;;;23.92;69.47;101413.16;5003998;28;103704;-51
2021/07/26 10:23:33;;;;;;;8.55;7.85;;;;;;;23.91;69.30;101411.53;5010565;28;102575;-51
2021/07/26 10:26:02;;;;;;;8.32;7.63;;;;;;;23.91;69.41;101411.53;5008154;28;102560;-51
2021/07/26 10:28:33;;;;;;;8.57;7.78;;;;;;;23.91;69.38;101408.75;5013338;28;102736;-51
2021/07/26 10:30:59;;;;;;;9.30;8.40;;;;;;;23.91;69.52;101394.84;5003242;28;104132;-51
2021/07/26 10:33:26;;;;;;;9.23;8.25;;;;;;;23.87;69.34;101393.91;5001076;28;101998;-51
2021/07/26 10:35:55;;;;;;;8.70;8.00;;;;;;;23.87;69.31;101399.47;5001816;28;103451;-51
2021/07/26 10:38:54;;;;;;;9.20;8.40;;;;;;;23.87;69.48;101402.25;4998231;28;102971;-51
2021/07/26 10:41:58;;;;;;;8.90;8.10;;;;;;;23.87;69.45;101399.47;4994008;28;103719;-51
2021/07/26 10:44:43;;;;;;;9.23;8.38;;;;;;;23.85;69.45;101385.13;5003508;28;102803;-52
2021/07/26 10:47:14;;;;;;;9.27;8.43;;;;;;;23.85;69.28;101376.78;4999602;28;103299;-51
2021/07/26 10:50:09;;;;;;;8.15;7.45;;;;;;;23.85;69.28;101379.56;5005418;28;103571;-51
2021/07/26 10:52:47;;;;;;;9.30;8.50;;;;;;;23.85;69.53;101374.00;4989361;28;103828;-51
2021/07/26 10:55:53;;;;;;;8.85;8.05;;;;;;;23.84;69.42;101377.91;5002357;28;102530;-51
2021/07/26 10:59:00;;;;;;;8.93;8.13;;;;;;;23.85;69.40;101379.56;4993445;28;102508;-51
2021/07/26 11:02:00;;;;;;;9.13;8.23;;;;;;;23.85;69.47;101379.56;4963257;28;103474;-51
2021/07/26 11:04:35;;;;;;;9.40;8.50;;;;;;;23.85;69.41;101383.16;5003137;28;103946;-51
2021/07/26 11:07:04;;;;;;;8.77;8.07;;;;;;;23.85;69.64;101379.56;5001566;28;102431;-51
2021/07/26 11:09:46;;;;;;;8.60;7.80;;;;;;;23.85;69.48;101385.13;4995709;28;102460;-51
2021/07/26 11:12:14;;;;;;;8.98;8.05;;;;;;;23.84;69.47;101375.13;5002875;28;102713;-51
2021/07/26 11:15:15;;;;;;;9.80;9.00;;;;;;;23.84;69.40;101377.91;5021532;27;103882;-51
2021/07/26 11:18:19;;;;;;;8.70;8.00;;;;;;;23.82;69.55;101383.84;4999691;28;102470;-51
2021/07/26 11:21:08;;;;;;;9.15;8.35;;;;;;;23.84;69.52;101380.69;5002090;28;102746;-51
2021/07/26 11:23:39;;;;;;;9.18;8.27;;;;;;;23.82;69.33;101385.81;5008379;28;102070;-51
2021/07/26 11:26:15;;;;;;;9.30;8.40;;;;;;;23.82;69.60;101377.47;5007177;28;103952;-51